Time;durP1;ratioP1;P1;durP2;ratioP2;P2;SDS_P1;SDS_P2;PMS_P1;PMS_P2;Temp;Humidity;BMP_temperature;BMP_pressure;BME280_temperature;BME280_humidity;BME280_pressure;Samples;Min_cycle;Max_cycle;Signal;HPM_P1;HPM_P2
2022/12/06 00:01:22;;;;;;;7.30;5.03;;;7.90;93.80;;;8.37;61.03;98933.94;4971591;28;124320;-75
2022/12/06 00:03:53;;;;;;;5.80;4.53;;;7.90;93.80;;;8.36;61.19;98935.88;4973466;28;123907;-75
2022/12/06 00:06:23;;;;;;;6.50;4.70;;;7.90;93.70;;;8.34;61.09;98937.28;4977169;28;113960;-75
2022/12/06 00:08:50;;;;;;;6.47;4.47;;;7.90;93.70;;;8.33;60.86;98928.22;4972330;28;114151;-75
2022/12/06 00:11:24;;;;;;;7.10;4.43;;;7.90;93.70;;;8.35;60.82;98928.72;4966660;28;124273;-74
2022/12/06 00:13:57;;;;;;;6.10;4.27;;;7.90;93.70;;;8.37;61.02;98931.19;4968008;28;124369;-74
2022/12/06 00:16:25;;;;;;;5.80;3.83;;;7.90;93.70;;;8.36;60.80;98935.88;4968483;28;114157;-75
2022/12/06 00:18:52;;;;;;;7.23;3.93;;;7.90;93.70;;;8.36;60.90;98941.38;4952977;28;113738;-75
2022/12/06 00:21:32;;;;;;;6.57;4.50;;;7.90;93.70;;;8.39;60.80;98937.25;4969716;28;124672;-75
2022/12/06 00:24:03;;;;;;;7.80;4.57;;;9.50;94.30;;;8.38;60.81;98939.16;4969001;28;124071;-74
2022/12/06 00:26:30;;;;;;;8.60;4.97;;;7.90;93.70;;;8.38;60.60;98933.66;4941986;28;114790;-74
2022/12/06 00:28:59;;;;;;;8.27;5.37;;;7.90;93.60;;;8.37;60.51;98929.25;4953451;28;114975;-74
2022/12/06 00:31:29;;;;;;;6.43;4.67;;;7.90;93.60;;;8.38;60.53;98932.81;4945631;28;124071;-74
2022/12/06 00:33:55;;;;;;;4.40;3.80;;;7.90;93.60;;;8.37;60.67;98929.25;4955463;28;123340;-74
2022/12/06 00:36:29;;;;;;;7.17;5.27;;;7.90;93.50;;;8.37;60.70;98922.94;4969702;28;114018;-74
2022/12/06 00:38:59;;;;;;;4.57;3.40;;;7.90;93.50;;;8.36;60.55;98924.06;4971162;28;113865;-74
2022/12/06 00:41:26;;;;;;;5.47;3.90;;;7.90;93.50;;;8.34;60.41;98910.56;4970819;28;124140;-74
2022/12/06 00:43:53;;;;;;;5.83;4.20;;;7.90;93.40;;;8.33;60.29;98913.63;4971032;28;123685;-74
2022/12/06 00:46:24;;;;;;;5.37;4.17;;;7.90;93.40;;;8.33;60.39;98910.88;4944762;28;113352;-74
2022/12/06 00:48:54;;;;;;;5.00;3.60;;;8.10;93.50;;;8.31;60.32;98919.44;4952991;28;114040;-74
2022/12/06 00:51:22;;;;;;;4.53;4.10;;;7.90;93.40;;;8.31;60.29;98926.88;4956528;28;123913;-74
2022/12/06 00:53:50;;;;;;;5.10;4.00;;;7.90;93.30;;;8.27;59.96;98926.63;4948339;28;124499;-74
2022/12/06 00:56:18;;;;;;;6.00;4.40;;;7.80;93.20;;;8.27;60.24;98921.13;4970571;28;114288;-74
2022/12/06 00:58:45;;;;;;;5.40;4.03;;;7.90;93.20;;;8.25;60.20;98920.59;4955279;28;113694;-74
2022/12/06 01:01:19;;;;;;;5.83;4.37;;;7.80;93.20;;;8.24;59.99;98924.47;4970285;28;124502;-74
2022/12/06 01:03:50;;;;;;;6.07;3.77;;;7.80;93.20;;;8.22;60.12;98915.69;4966586;28;124255;-73
2022/12/06 01:06:18;;;;;;;5.63;4.30;;;7.80;93.20;;;8.22;60.22;98915.69;4969974;28;114253;-74
2022/12/06 01:08:44;;;;;;;5.97;4.20;;;7.80;93.20;;;8.22;60.16;98912.09;4945459;28;114196;-74
2022/12/06 01:11:13;;;;;;;7.53;4.70;;;7.80;93.20;;;8.21;60.10;98915.97;4954619;28;125502;-75
2022/12/06 01:13:43;;;;;;;4.87;3.80;;;7.80;93.20;;;8.22;60.06;98912.94;4947336;28;123601;-75
2022/12/06 01:16:15;;;;;;;7.00;4.70;;;7.80;93.20;;;8.22;60.17;98912.94;4951066;28;115390;-74
2022/12/06 01:18:44;;;;;;;4.73;3.87;;;7.80;93.20;;;8.20;60.45;98912.41;4951941;28;114974;-75
2022/12/06 01:21:18;;;;;;;8.67;4.97;;;7.70;93.20;;;8.21;60.26;98919.53;4954506;28;123780;-75
2022/12/06 01:23:46;;;;;;;12.30;5.50;;;7.70;93.30;;;8.21;60.43;98921.47;4951192;28;123913;-75
2022/12/06 01:26:24;;;;;;;9.83;5.80;;;7.70;93.30;;;8.21;60.42;98915.97;4954748;28;113694;-75
2022/12/06 01:28:51;;;;;;;10.00;6.47;;;7.70;93.30;;;8.21;60.70;98922.31;4972058;28;114072;-74
2022/12/06 01:31:18;;;;;;;13.13;5.57;;;7.70;93.40;;;8.21;60.60;98919.53;4968238;28;124448;-74
2022/12/06 01:33:45;;;;;;;10.83;6.53;;;7.70;93.40;;;8.21;60.72;98925.06;4935604;28;124022;-74
2022/12/06 01:36:22;;;;;;;15.93;7.63;;;7.80;93.50;;;8.24;60.95;98926.41;4954293;28;113903;-73
2022/12/06 01:38:51;;;;;;;13.20;6.80;;;7.70;93.50;;;8.20;60.78;98920.66;4959674;28;113838;-74
2022/12/06 01:41:19;;;;;;;9.17;7.17;;;7.70;93.60;;;8.16;61.21;98916.84;4953246;28;123368;-74
2022/12/06 01:43:46;;;;;;;10.03;6.43;;;7.70;93.70;;;8.12;61.24;98913.06;4962074;28;123830;-74
2022/12/06 01:46:28;;;;;;;13.57;7.10;;;7.60;93.70;;;8.13;61.43;98909.19;4951185;28;113773;-74
2022/12/06 01:49:16;;;;;;;9.30;6.50;;;7.60;93.80;;;8.11;61.33;98905.91;4974781;28;113564;-74
2022/12/06 01:52:00;;;;;;;15.10;8.20;;;7.60;93.90;;;8.11;61.69;98911.41;4959008;28;125129;-76
2022/12/06 01:54:28;;;;;;;11.67;6.70;;;7.70;94.00;;;8.08;61.64;98904.56;4952349;28;124109;-74
2022/12/06 01:56:58;;;;;;;15.40;7.87;;;7.60;93.90;;;8.10;61.77;98904.28;4968123;28;114176;-74
2022/12/06 01:59:25;;;;;;;13.33;7.50;;;7.60;94.00;;;8.09;61.85;98908.97;4955359;28;112828;-74
2022/12/06 02:01:52;;;;;;;11.33;6.90;;;7.60;94.00;;;8.09;61.74;98908.16;4970548;28;124102;-74
2022/12/06 02:04:21;;;;;;;12.90;8.23;;;7.60;94.00;;;8.08;61.90;98901.00;4962618;28;123927;-74
2022/12/06 02:06:49;;;;;;;13.60;7.40;;;7.70;94.10;;;8.08;61.98;98903.75;4954800;28;114211;-74
2022/12/06 02:09:17;;;;;;;10.63;7.47;;;7.70;94.10;;;8.08;61.95;98906.50;4967584;28;114897;-74
2022/12/06 02:11:44;;;;;;;15.57;8.27;;;7.60;94.10;;;8.08;61.87;98906.50;4952346;28;124358;-74
2022/12/06 02:14:18;;;;;;;9.40;6.00;;;7.80;94.20;;;8.10;62.00;98904.28;4968261;28;123817;-74
2022/12/06 02:17:29;;;;;;;15.20;8.83;;;7.60;94.10;;;8.08;61.93;98901.00;4973174;28;114323;-74
2022/12/06 02:20:21;;;;;;;13.70;7.90;;;7.60;94.10;;;8.06;62.06;98893.03;4956458;28;115124;-74
2022/12/06 02:23:22;;;;;;;17.17;8.97;;;7.60;94.20;;;8.05;62.50;98896.06;4952505;28;124977;-74
2022/12/06 02:26:13;;;;;;;14.20;8.40;;;7.60;94.20;;;7.99;62.09;98892.56;4970625;28;124038;-75
2022/12/06 02:29:10;;;;;;;12.07;8.50;;;7.50;94.20;;;7.97;62.29;98901.09;4970486;28;114769;-74
2022/12/06 02:31:57;;;;;;;10.80;7.50;;;7.50;94.20;;;7.95;62.40;98895.09;4955373;28;112897;-74
2022/12/06 02:34:47;;;;;;;16.13;9.07;;;7.50;94.30;;;7.94;62.32;98887.94;4946386;28;123763;-74
2022/12/06 02:37:27;;;;;;;14.30;9.13;;;7.50;94.30;;;7.92;62.56;98887.41;4944204;28;123263;-73
2022/12/06 02:40:12;;;;;;;11.10;7.87;;;7.40;94.30;;;7.89;62.38;98882.50;4951212;28;113738;-74
2022/12/06 02:43:08;;;;;;;12.73;8.17;;;7.40;94.40;;;7.88;62.72;98880.88;4951397;28;113853;-74
2022/12/06 02:45:42;;;;;;;14.07;8.93;;;7.60;94.50;;;7.85;62.70;98881.47;4936291;28;122829;-74
2022/12/06 02:48:10;;;;;;;14.53;8.33;;;7.40;94.40;;;7.82;63.00;98879.28;4953413;28;124266;-74
2022/12/06 02:50:42;;;;;;;18.63;8.43;;;7.40;94.50;;;7.85;62.86;98886.16;4946926;28;113310;-74
2022/12/06 02:53:16;;;;;;;14.60;7.60;;;7.40;94.50;;;7.85;62.84;98875.94;4946727;28;113420;-74
2022/12/06 02:55:44;;;;;;;13.27;8.20;;;7.40;94.50;;;7.86;62.93;98876.75;4949671;28;124018;-74
2022/12/06 02:58:10;;;;;;;11.50;7.30;;;7.40;94.50;;;7.87;62.71;98872.91;4934574;28;122867;-74
2022/12/06 03:00:44;;;;;;;13.00;8.20;;;7.40;94.80;;;7.84;62.79;98868.78;4966330;28;115442;-74
2022/12/06 03:03:55;;;;;;;13.40;8.47;;;7.40;94.50;;;7.79;62.81;98879.88;4950852;28;115007;-74
2022/12/06 03:07:16;;;;;;;13.17;8.00;;;7.30;94.50;;;7.75;62.78;98876.88;4955077;28;124552;-74
2022/12/06 03:10:23;;;;;;;12.93;6.73;;;7.30;94.50;;;7.76;62.91;98877.69;4931424;28;122374;-74
2022/12/06 03:13:15;;;;;;;13.80;7.97;;;7.30;94.50;;;7.75;63.11;98873.31;4959486;28;114288;-74
2022/12/06 03:16:16;;;;;;;13.17;6.73;;;7.30;94.50;;;7.75;62.87;98876.88;4942422;28;114532;-74
2022/12/06 03:19:01;;;;;;;12.03;7.33;;;7.30;94.50;;;7.74;62.93;98869.75;4954506;28;122804;-74
2022/12/06 03:22:01;;;;;;;10.83;6.57;;;7.30;94.60;;;7.73;62.94;98867.28;4954302;28;122762;-75
2022/12/06 03:24:32;;;;;;;12.80;8.20;;;7.20;94.50;;;7.68;62.97;98864.59;4944249;28;113767;-74
2022/12/06 03:27:05;;;;;;;13.07;7.93;;;7.30;94.50;;;7.66;63.13;98864.06;4953358;28;114531;-74
2022/12/06 03:29:35;;;;;;;12.93;7.63;;;7.20;94.50;;;7.66;63.07;98855.81;4946176;28;124453;-74
2022/12/06 03:32:05;;;;;;;13.77;8.20;;;7.30;94.60;;;7.65;62.86;98859.66;4948332;28;122752;-74
2022/12/06 03:34:40;;;;;;;13.63;8.03;;;7.20;94.50;;;7.63;63.10;98857.22;4952509;28;114126;-75
2022/12/06 03:37:13;;;;;;;14.50;8.50;;;7.20;94.50;;;7.60;63.05;98860.53;4959496;28;112837;-77
2022/12/06 03:40:05;;;;;;;13.73;8.20;;;7.20;94.50;;;7.57;62.87;98858.38;4952491;28;124474;-74
2022/12/06 03:42:32;;;;;;;14.03;7.50;;;7.10;94.50;;;7.53;62.82;98852.66;4945559;28;123079;-74
2022/12/06 03:45:00;;;;;;;16.17;8.20;;;7.10;94.60;;;7.56;63.19;98858.69;4948879;28;114118;-74
2022/12/06 03:47:46;;;;;;;12.30;7.50;;;7.10;94.60;;;7.59;63.13;98850.66;4968213;28;113749;-75
2022/12/06 03:50:22;;;;;;;11.33;7.40;;;7.10;94.60;;;7.60;62.86;98855.03;4950761;28;123738;-74
2022/12/06 03:52:51;;;;;;;13.80;8.10;;;7.10;94.60;;;7.62;63.03;98861.06;4948715;28;124969;-74
2022/12/06 03:55:20;;;;;;;15.93;7.50;;;7.10;94.60;;;7.64;62.99;98852.53;4950300;28;114252;-74
2022/12/06 03:57:47;;;;;;;12.67;7.83;;;7.10;94.60;;;7.62;62.89;98855.56;4959728;28;115437;-75
2022/12/06 04:00:15;;;;;;;13.90;6.80;;;7.20;94.60;;;7.64;62.93;98849.78;4966951;28;123700;-74
2022/12/06 04:02:41;;;;;;;10.20;6.67;;;7.10;94.60;;;7.63;62.86;98848.97;4942212;28;123046;-74
2022/12/06 04:05:09;;;;;;;17.10;8.30;;;7.20;94.60;;;7.64;62.49;98847.03;4968907;28;114283;-73
2022/12/06 04:07:35;;;;;;;13.13;7.83;;;7.10;94.50;;;7.61;62.92;98844.88;4962222;28;114213;-74
2022/12/06 04:10:06;;;;;;;12.27;7.67;;;7.20;94.60;;;7.61;63.05;98845.69;4955576;28;123353;-74
2022/12/06 04:15:21;;;;;;;12.60;7.87;;;7.10;94.60;;;7.59;62.88;98844.34;4954287;28;114708;-74
2022/12/06 04:23:19;;;;;;;15.60;7.23;;;7.10;94.50;;;7.64;63.01;98836.03;4974214;28;124488;-75
2022/12/06 04:25:46;;;;;;;9.40;6.57;;;7.20;94.50;;;7.65;62.79;98832.97;4954979;28;114223;-75
2022/12/06 04:39:12;;;;;;;15.93;7.57;;;7.30;94.50;;;7.75;62.46;98821.88;4994524;28;114417;-74
2022/12/06 04:44:24;;;;;;;8.93;6.67;;;7.30;94.40;;;7.79;62.59;98827.63;4965144;28;124895;-74
2022/12/06 04:46:50;;;;;;;13.27;7.30;;;7.30;94.40;;;7.80;62.50;98818.25;4957329;28;114159;-74
2022/12/06 04:49:17;;;;;;;11.13;7.03;;;7.30;94.40;;;7.81;62.51;98814.38;4973352;28;114925;-74
2022/12/06 04:51:43;;;;;;;8.53;6.33;;;7.30;94.40;;;7.84;62.48;98811.03;4945137;28;122818;-74
2022/12/06 04:54:10;;;;;;;10.00;7.00;;;7.40;94.40;;;7.86;62.70;98810.75;4965357;28;123152;-74
2022/12/06 04:56:37;;;;;;;11.83;6.87;;;7.40;94.40;;;7.86;62.43;98817.06;4963499;28;114306;-75
2022/12/06 04:59:03;;;;;;;7.60;5.40;;;7.40;94.40;;;7.87;62.60;98812.38;4971853;28;114231;-75
2022/12/06 05:01:29;;;;;;;12.20;7.10;;;7.40;94.40;;;7.86;62.31;98802.50;4970256;28;124034;-75
2022/12/06 05:03:56;;;;;;;11.30;6.70;;;7.60;94.40;;;7.85;62.53;98807.19;4967370;28;122882;-75
2022/12/06 05:06:22;;;;;;;11.50;7.67;;;7.50;94.40;;;7.85;62.23;98801.69;4969575;28;114109;-74
2022/12/06 05:08:49;;;;;;;12.63;7.40;;;7.40;94.40;;;7.87;62.32;98799.47;4986520;28;113901;-74
2022/12/06 05:11:15;;;;;;;13.13;7.27;;;7.40;94.40;;;7.88;62.38;98809.34;4957978;28;124045;-74
2022/12/06 05:13:42;;;;;;;10.77;6.83;;;7.40;94.40;;;7.87;62.21;98806.88;4954002;28;122878;-74
2022/12/06 05:16:09;;;;;;;9.40;6.07;;;7.40;94.40;;;7.87;62.25;98802.22;4986915;28;114121;-74
2022/12/06 05:18:35;;;;;;;9.83;6.37;;;7.40;94.40;;;7.89;62.26;98818.41;4938171;28;111983;-74
2022/12/06 05:21:13;;;;;;;10.33;6.33;;;7.40;94.40;;;7.91;62.18;98808.75;4968883;28;124115;-74
2022/12/06 05:23:39;;;;;;;10.43;6.47;;;7.40;94.30;;;7.90;61.99;98811.81;4954752;28;123376;-74
2022/12/06 05:26:11;;;;;;;11.53;6.70;;;7.40;94.30;;;7.92;62.33;98815.06;4970875;28;114350;-74
2022/12/06 05:28:38;;;;;;;10.83;6.90;;;7.40;94.30;;;7.92;61.89;98818.63;4969050;28;114560;-74
2022/12/06 05:31:05;;;;;;;11.20;7.00;;;7.40;94.30;;;7.93;61.97;98816.72;4938626;28;122975;-74
2022/12/06 05:33:32;;;;;;;11.93;6.43;;;7.40;94.30;;;7.95;62.05;98815.31;4950721;28;124136;-75
2022/12/06 05:36:04;;;;;;;9.90;6.27;;;7.50;94.30;;;7.95;62.10;98809.81;4937770;28;114031;-74
2022/12/06 05:38:32;;;;;;;10.50;6.67;;;7.50;94.30;;;7.97;62.02;98817.75;4950612;28;114857;-75
2022/12/06 05:40:58;;;;;;;8.80;5.10;;;7.50;94.30;;;7.99;62.29;98814.72;4966407;28;124078;-74
2022/12/06 05:43:25;;;;;;;8.40;5.90;;;7.50;94.30;;;8.00;61.99;98806.16;4965114;28;124050;-75
2022/12/06 05:45:52;;;;;;;7.63;4.83;;;7.50;94.20;;;8.02;61.79;98808.63;4944526;28;112200;-75
2022/12/06 05:48:19;;;;;;;9.13;5.63;;;7.60;94.20;;;8.02;61.85;98809.44;4970013;28;113998;-74
2022/12/06 05:50:46;;;;;;;10.40;6.27;;;7.50;94.10;;;8.01;61.77;98804.25;4937749;28;121686;-75
2022/12/06 05:53:13;;;;;;;9.67;5.67;;;7.50;94.10;;;8.02;61.77;98805.88;4954218;28;124201;-75
2022/12/06 05:55:40;;;;;;;7.60;5.10;;;7.50;94.10;;;8.03;61.49;98800.06;4949196;28;113491;-75
2022/12/06 05:58:07;;;;;;;6.67;5.00;;;7.90;94.20;;;8.05;61.57;98800.59;4955640;28;113805;-74
2022/12/06 06:00:33;;;;;;;7.97;4.80;;;7.60;94.00;;;8.05;61.38;98808.03;4961322;28;124198;-75
2022/12/06 06:03:00;;;;;;;7.43;4.30;;;7.60;94.00;;;8.05;61.17;98808.03;4961222;28;124626;-75
2022/12/06 06:05:26;;;;;;;5.97;3.63;;;7.60;93.90;;;8.05;60.80;98803.34;4951168;28;114197;-75
2022/12/06 06:07:54;;;;;;;5.50;4.10;;;7.60;93.80;;;8.06;60.87;98812.41;4971583;28;113984;-74
2022/12/06 06:10:20;;;;;;;5.17;3.63;;;7.70;93.70;;;8.06;60.59;98809.66;4968851;28;123930;-74
2022/12/06 06:12:47;;;;;;;3.63;3.23;;;7.60;93.60;;;8.06;60.42;98810.50;4968507;28;123656;-74
2022/12/06 06:15:14;;;;;;;5.20;3.80;;;7.60;93.50;;;8.04;60.23;98807.22;4955402;28;113269;-74
2022/12/06 06:17:42;;;;;;;3.90;3.50;;;7.60;93.40;;;8.04;60.19;98814.66;4964902;28;113935;-74
2022/12/06 06:20:12;;;;;;;5.57;3.50;;;7.60;93.30;;;8.03;59.82;98804.75;4959257;28;124007;-74
2022/12/06 06:22:41;;;;;;;5.57;3.27;;;7.60;93.20;;;8.02;59.60;98803.94;4951322;28;124152;-74
2022/12/06 06:25:08;;;;;;;5.17;3.57;;;7.50;93.00;;;7.99;59.77;98815.53;4970195;28;115171;-74
2022/12/06 06:27:36;;;;;;;5.57;3.70;;;7.50;93.00;;;7.97;59.95;98815.81;4954562;28;115141;-75
2022/12/06 06:30:07;;;;;;;4.87;3.63;;;7.50;93.00;;;7.99;59.69;98814.72;4926490;28;123864;-75
2022/12/06 06:32:37;;;;;;;3.63;3.13;;;7.50;93.10;;;7.99;59.73;98811.97;4928290;28;123231;-77
2022/12/06 06:35:10;;;;;;;4.43;3.30;;;7.50;93.00;;;8.03;60.48;98813.00;4968141;28;113944;-74
2022/12/06 06:37:36;;;;;;;6.37;3.67;;;7.60;93.20;;;8.08;60.52;98807.44;4949837;28;113952;-73
2022/12/06 06:40:04;;;;;;;4.53;2.90;;;7.60;93.50;;;8.12;60.10;98806.56;4966735;28;124251;-74
2022/12/06 06:42:30;;;;;;;4.27;3.47;;;7.60;93.30;;;8.13;59.60;98799.13;4953599;28;123594;-75
2022/12/06 06:44:57;;;;;;;4.57;3.20;;;7.60;93.10;;;8.10;59.51;98794.22;4950623;28;113549;-75
2022/12/06 06:47:24;;;;;;;5.10;3.70;;;7.60;93.00;;;8.09;59.38;98792.56;4951836;28;113853;-74
2022/12/06 06:49:50;;;;;;;4.63;3.50;;;7.60;92.90;;;8.08;59.21;98796.44;4968605;28;124461;-75
2022/12/06 06:52:17;;;;;;;5.07;3.23;;;7.60;92.80;;;8.06;59.15;98801.41;4950718;28;123801;-75
2022/12/06 06:54:43;;;;;;;4.33;3.60;;;7.60;92.70;;;8.07;59.09;98811.31;4966459;28;114331;-75
2022/12/06 06:57:09;;;;;;;4.67;3.30;;;7.60;92.70;;;8.06;59.08;98804.16;4948893;28;113859;-76
2022/12/06 06:59:37;;;;;;;5.30;3.70;;;7.60;92.70;;;8.07;58.85;98808.56;4948279;28;123960;-75
2022/12/06 07:02:04;;;;;;;6.00;3.40;;;7.60;92.70;;;8.05;58.71;98811.59;4953942;28;123140;-75
2022/12/06 07:04:30;;;;;;;4.30;3.40;;;7.60;92.60;;;8.06;58.85;98815.16;4968719;28;114092;-75
2022/12/06 07:06:57;;;;;;;5.10;3.90;;;7.60;92.60;;;8.03;58.67;98810.25;4970938;28;113039;-75
2022/12/06 07:09:24;;;;;;;4.67;3.60;;;7.50;92.40;;;8.02;58.72;98814.13;4951831;28;123984;-75
2022/12/06 07:11:52;;;;;;;4.60;3.57;;;7.50;92.50;;;8.00;58.69;98810.84;4971228;28;123678;-76
2022/12/06 07:14:18;;;;;;;5.33;3.80;;;7.50;92.50;;;7.98;58.67;98813.91;4938686;28;113774;-75
2022/12/06 07:16:45;;;;;;;5.10;3.73;;;7.50;92.40;;;7.99;58.49;98820.22;4969081;28;115097;-74
2022/12/06 07:19:11;;;;;;;5.40;3.80;;;7.50;92.40;;;8.00;58.70;98816.34;4973047;28;123719;-73
2022/12/06 07:21:39;;;;;;;6.13;3.87;;;7.50;92.40;;;8.00;58.41;98808.91;4952854;28;122186;-75
2022/12/06 07:24:06;;;;;;;4.83;3.50;;;7.60;92.40;;;8.00;58.68;98816.34;4966779;28;114156;-74
2022/12/06 07:26:33;;;;;;;8.77;4.43;;;7.50;92.40;;;8.00;58.66;98814.41;4949986;28;113363;-74
2022/12/06 07:29:00;;;;;;;7.00;3.90;;;7.50;92.30;;;8.00;58.49;98816.34;4969936;28;123681;-74
2022/12/06 07:31:29;;;;;;;5.67;3.70;;;7.50;92.20;;;8.00;58.16;98819.09;4951928;28;123797;-74
2022/12/06 07:33:59;;;;;;;4.50;3.60;;;7.50;92.20;;;8.00;58.32;98816.34;4970042;28;113304;-73
2022/12/06 07:36:29;;;;;;;4.53;3.47;;;7.70;92.20;;;8.00;58.16;98816.34;4950747;28;113432;-73
2022/12/06 07:38:58;;;;;;;7.33;3.97;;;7.50;92.10;;;7.97;58.01;98813.06;4967877;28;123666;-74
2022/12/06 07:47:01;;;;;;;5.33;3.50;;;7.50;92.00;;;7.97;58.22;98817.75;4970188;28;113448;-75
2022/12/06 07:49:27;;;;;;;4.00;3.10;;;7.50;92.00;;;7.95;58.04;98815.31;4968019;28;123968;-76
2022/12/06 07:51:54;;;;;;;8.80;3.70;;;7.50;92.00;;;7.96;58.20;98811.44;4944931;28;123325;-74
2022/12/06 07:54:22;;;;;;;4.70;3.30;;;7.50;92.00;;;7.96;57.65;98805.94;4944886;28;115083;-75
2022/12/06 07:56:49;;;;;;;4.80;3.53;;;7.50;92.00;;;7.94;57.80;98808.16;4969030;28;113813;-76
2022/12/06 07:59:16;;;;;;;4.70;3.70;;;7.50;92.00;;;7.95;57.86;98808.97;4937324;28;122520;-75
2022/12/06 08:01:43;;;;;;;4.80;3.17;;;7.50;92.00;;;7.94;58.12;98813.66;4965352;28;125006;-76
2022/12/06 08:04:10;;;;;;;4.37;3.50;;;7.60;92.00;;;7.94;57.83;98813.66;4954475;28;112957;-75
2022/12/06 08:06:36;;;;;;;5.00;3.60;;;7.50;91.90;;;7.95;58.22;98815.31;4965928;28;114849;-75
2022/12/06 08:09:04;;;;;;;4.20;3.10;;;7.50;91.90;;;7.96;57.66;98814.19;4936321;28;123460;-76
2022/12/06 08:11:31;;;;;;;4.33;3.63;;;7.50;91.90;;;7.97;57.94;98818.56;4949102;28;123964;-77
2022/12/06 08:13:57;;;;;;;5.87;4.00;;;7.50;91.90;;;7.99;57.80;98820.22;4948775;28;114233;-77
2022/12/06 08:16:24;;;;;;;4.00;3.50;;;7.50;91.90;;;7.99;57.70;98812.78;4965739;28;113881;-76
2022/12/06 08:18:51;;;;;;;6.10;3.33;;;7.50;91.90;;;7.97;57.93;98818.56;4964816;28;123810;-74
2022/12/06 08:21:18;;;;;;;3.73;3.33;;;7.50;91.90;;;7.99;57.89;98817.47;4951455;28;123624;-76
2022/12/06 08:23:44;;;;;;;4.70;3.37;;;7.50;91.90;;;8.00;57.66;98817.16;4950391;28;114245;-76
2022/12/06 08:26:14;;;;;;;6.70;4.53;;;7.50;91.80;;;8.01;57.61;98818.00;4971393;28;113918;-75
2022/12/06 08:28:42;;;;;;;5.10;3.60;;;7.50;91.80;;;8.01;57.63;98812.50;4949548;28;123310;-75
2022/12/06 08:31:16;;;;;;;7.90;4.07;;;7.50;91.80;;;8.02;57.76;98809.44;4967367;28;123767;-76
2022/12/06 08:33:44;;;;;;;4.80;3.40;;;7.50;91.80;;;8.03;57.86;98816.56;4969899;28;114091;-74
2022/12/06 08:36:17;;;;;;;3.83;3.23;;;7.50;91.80;;;8.05;57.76;98814.34;4959098;28;113702;-74
2022/12/06 08:38:44;;;;;;;5.20;3.40;;;7.50;91.80;;;8.06;57.77;98816.00;4966653;28;123938;-75
2022/12/06 08:44:01;;;;;;;8.20;4.57;;;7.50;91.80;;;8.03;57.62;98815.75;4970401;28;114739;-75
2022/12/06 08:46:34;;;;;;;6.97;4.20;;;7.50;91.80;;;8.02;57.96;98825.94;4957520;28;114080;-75
2022/12/06 08:49:00;;;;;;;6.73;3.87;;;7.60;91.80;;;8.00;57.92;98827.34;4948321;28;124459;-74
2022/12/06 08:51:28;;;;;;;5.20;4.20;;;7.50;91.80;;;7.98;57.79;98830.41;4967045;28;125558;-75
2022/12/06 08:53:55;;;;;;;6.10;3.83;;;7.50;91.90;;;7.96;58.08;98819.69;4965495;28;114807;-75
2022/12/06 08:56:23;;;;;;;5.83;4.30;;;7.50;91.90;;;7.95;58.08;98820.81;4970345;28;114872;-75
2022/12/06 08:58:52;;;;;;;6.47;4.20;;;7.50;91.90;;;7.95;58.32;98823.56;4936664;28;123565;-75
2022/12/06 09:01:23;;;;;;;5.20;3.60;;;7.50;91.90;;;7.96;58.56;98827.94;4969017;28;123944;-76
2022/12/06 09:03:49;;;;;;;5.90;4.00;;;7.50;92.00;;;7.97;58.28;98826.00;4952746;28;114273;-76
2022/12/06 09:06:18;;;;;;;5.63;3.63;;;7.50;92.00;;;8.00;58.73;98828.16;4941193;28;114216;-74
2022/12/06 09:08:45;;;;;;;4.67;3.63;;;7.50;92.10;;;8.03;58.64;98832.25;4969342;28;124431;-75
2022/12/06 09:11:12;;;;;;;6.57;4.40;;;7.50;92.10;;;8.05;58.66;98835.53;4955054;28;123372;-76
2022/12/06 09:13:39;;;;;;;4.83;3.80;;;7.60;92.20;;;8.06;58.64;98838.00;4954353;28;114496;-75
2022/12/06 09:16:18;;;;;;;8.13;5.07;;;8.30;92.50;;;8.07;58.30;98836.88;4969464;28;114048;-76
2022/12/06 09:18:46;;;;;;;8.67;4.97;;;7.60;92.30;;;8.06;58.83;98839.91;4969090;28;124140;-75
2022/12/06 09:21:19;;;;;;;6.17;4.63;;;7.60;92.30;;;8.05;58.76;98832.78;4955583;28;123686;-75
2022/12/06 09:23:46;;;;;;;7.23;5.10;;;7.60;92.30;;;8.04;59.10;98834.72;4960744;28;114362;-74
2022/12/06 09:26:13;;;;;;;6.20;4.13;;;7.60;92.30;;;8.01;58.96;98834.50;4941208;28;112515;-76
2022/12/06 09:28:43;;;;;;;9.33;4.67;;;7.50;92.30;;;7.99;58.96;98833.97;4970205;28;124013;-74
2022/12/06 09:31:29;;;;;;;6.90;4.70;;;7.50;92.40;;;7.99;59.03;98831.22;4968305;28;123821;-75
2022/12/06 09:33:56;;;;;;;5.87;4.87;;;7.50;92.40;;;7.95;59.36;98842.81;4974730;28;114259;-76
2022/12/06 09:36:28;;;;;;;8.43;5.67;;;7.50;92.50;;;7.96;59.00;98847.22;4958227;28;114430;-77
2022/12/06 09:39:04;;;;;;;5.50;4.30;;;7.50;92.60;;;7.95;59.11;98839.22;4964991;28;123752;-76
2022/12/06 09:42:27;;;;;;;8.80;4.80;;;7.50;92.50;;;7.92;59.15;98837.88;4939503;28;123841;-77
2022/12/06 09:45:33;;;;;;;9.17;5.27;;;7.50;92.50;;;7.87;59.29;98843.47;4969124;28;115012;-74
2022/12/06 09:48:41;;;;;;;6.90;4.90;;;7.40;92.50;;;7.86;59.47;98846.50;4969788;28;114831;-75
2022/12/06 09:51:30;;;;;;;7.93;5.13;;;7.40;92.60;;;7.84;59.63;98838.53;4946663;28;124807;-77
2022/12/06 09:54:06;;;;;;;6.83;4.53;;;7.40;92.70;;;7.86;59.95;98833.56;4974177;28;98088;-78
2022/12/06 09:56:48;;;;;;;7.20;4.97;;;7.40;92.70;;;7.86;60.08;98839.06;4970775;28;113572;-76
2022/12/06 09:59:59;;;;;;;7.87;5.97;;;8.00;93.10;;;7.90;60.39;98840.13;4950784;28;113775;-77
2022/12/06 10:03:04;;;;;;;11.57;7.00;;;7.40;93.10;;;7.89;60.33;98838.47;4964764;28;122207;-77
2022/12/06 10:05:43;;;;;;;10.60;6.83;;;7.40;93.10;;;7.91;60.41;98838.19;4955551;28;122809;-75
2022/12/06 10:08:59;;;;;;;14.93;5.83;;;7.40;93.10;;;7.91;60.32;98839.00;4948141;28;114623;-76
2022/12/06 10:12:03;;;;;;;8.97;6.23;;;7.50;93.10;;;7.89;60.35;98829.41;4967458;28;114236;-77
2022/12/06 10:14:54;;;;;;;11.13;7.00;;;7.40;93.00;;;7.85;60.38;98831.94;4953765;28;122724;-76
2022/12/06 10:17:53;;;;;;;10.53;7.80;;;7.40;93.00;;;7.84;60.36;98833.03;4969059;28;124337;-76
2022/12/06 10:20:29;;;;;;;11.23;8.00;;;7.40;93.00;;;7.80;60.26;98839.44;4889228;28;112981;-76
2022/12/06 10:23:21;;;;;;;8.70;6.30;;;7.40;93.00;;;7.79;60.36;98826.78;4895964;28;113738;-75
2022/12/06 10:26:13;;;;;;;13.37;7.70;;;7.40;93.10;;;7.80;60.32;98832.00;4907818;28;124633;-75
2022/12/06 10:29:16;;;;;;;11.57;7.37;;;7.40;93.10;;;7.81;60.43;98825.38;4919854;28;123843;-76
2022/12/06 10:31:50;;;;;;;11.67;8.30;;;7.60;93.40;;;7.79;60.38;98822.13;4907660;28;113265;-75
2022/12/06 10:34:43;;;;;;;11.23;7.70;;;7.70;93.20;;;7.76;60.39;98833.69;4923247;28;114080;-75
2022/12/06 10:37:59;;;;;;;10.30;7.57;;;7.40;93.00;;;7.73;60.41;98826.03;4901196;28;123202;-76
2022/12/06 10:40:59;;;;;;;11.77;8.13;;;7.30;93.00;;;7.68;60.48;98820.59;4882456;28;123325;-75
2022/12/06 10:43:49;;;;;;;10.17;7.40;;;7.30;93.00;;;7.63;60.78;98823.38;4920173;28;115491;-77
2022/12/06 10:49:45;;;;;;;10.70;7.80;;;7.20;93.10;;;7.59;60.78;98822.34;4920277;28;124620;-76
2022/12/06 10:52:42;;;;;;;11.83;7.33;;;7.20;93.10;;;7.56;60.89;98825.69;4941926;28;124106;-75
2022/12/06 10:55:08;;;;;;;14.50;8.80;;;7.20;93.10;;;7.50;60.96;98820.25;4968832;28;113840;-75
2022/12/06 10:57:54;;;;;;;10.73;7.47;;;7.10;93.20;;;7.49;61.32;98813.09;4975244;28;113468;-76
2022/12/06 11:00:24;;;;;;;13.60;7.40;;;7.10;93.20;;;7.46;61.33;98810.94;4960623;28;124335;-75
2022/12/06 11:03:30;;;;;;;10.73;6.67;;;7.10;93.30;;;7.49;61.42;98806.78;4946556;28;123201;-77
2022/12/06 11:06:25;;;;;;;11.20;6.30;;;7.10;93.30;;;7.50;61.27;98806.50;4966502;28;114724;-76
2022/12/06 11:08:57;;;;;;;10.10;6.60;;;7.10;93.40;;;7.50;61.34;98800.19;4972046;28;114067;-76
2022/12/06 11:11:36;;;;;;;10.67;6.50;;;7.10;93.40;;;7.50;61.37;98803.75;4953443;28;123778;-80
2022/12/06 11:14:38;;;;;;;8.07;5.77;;;7.10;93.40;;;7.52;61.49;98797.94;4967784;28;124025;-76
2022/12/06 11:17:31;;;;;;;12.30;7.73;;;7.10;93.50;;;7.53;61.52;98792.16;4968334;28;114532;-76
2022/12/06 11:20:31;;;;;;;10.43;6.47;;;7.10;93.50;;;7.50;61.62;98798.25;4948283;28;113882;-76
2022/12/06 11:23:04;;;;;;;12.73;5.83;;;7.10;93.60;;;7.46;61.84;98805.44;4963186;28;123789;-76
2022/12/06 11:25:57;;;;;;;8.90;6.67;;;7.00;93.60;;;7.48;61.68;98794.16;4966057;28;123826;-80